Buoy 55955

sailwx.info

Track history (hours):
 
Tides and Currents Weather Stations Pressure Air Temp Water Temp Dewpoint Dewpoint Depression Visibility Wind Speed Wind Dir Waves Ship Positions

Drifting buoy 55955

Last reported at 2017-Dec-17 04:00 UTC. Time now 2017-Dec-17 06:27 UTC.
Position S 20°27' E 170°28'.

Water temperature 27.3 ° C

Date/timePositionNaut miles runAvg speedWind from/ knotsBaromVisibWave heightAir tempDewpointWater temp
2017-Dec-17 04:00S 20°27' E 170°28'0 0.0 27.3
2017-Dec-16 22:00S 20°27' E 170°28'1 0.8 27.3
2017-Dec-16 21:00S 20°26' E 170°28'1 1.3 27.3
2017-Dec-16 20:00S 20°26' E 170°29'1 0.6 27.3
2017-Dec-16 19:00S 20°26' E 170°30'2 0.8 27.3
2017-Dec-16 16:00S 20°25' E 170°32'2 2.3 27.3
2017-Dec-16 15:00S 20°26' E 170°35'0 0.0 27.3
2017-Dec-16 11:00S 20°26' E 170°35'1 0.8 27.3
2017-Dec-16 10:00S 20°25' E 170°35'0 0.0 27.3
2017-Dec-16 09:00S 20°25' E 170°35'1 1.1 27.3
2017-Dec-16 08:00S 20°25' E 170°37'1 0.6 27.3
2017-Dec-16 07:00S 20°25' E 170°37'2 1.7 27.3
2017-Dec-16 06:00S 20°25' E 170°38'0 0.0 27.3
2017-Dec-16 05:00S 20°25' E 170°38'1 0.6 27.3
2017-Dec-16 04:00S 20°25' E 170°39'0 0.0 27.3
2017-Dec-16 03:00S 20°25' E 170°39'0 0.0 27.3
2017-Dec-16 02:00S 20°25' E 170°39'3 1.0 27.3
2017-Dec-15 23:00S 20°24' E 170°42'0 0.0 27.3
2017-Dec-15 22:00S 20°24' E 170°42'1 1.3 27.3
2017-Dec-15 21:00S 20°25' E 170°43'2 1.6 27.3
2017-Dec-15 20:00S 20°23' E 170°44'1 0.3 27.3
2017-Dec-15 18:00S 20°23' E 170°45'2 2.1 27.2
2017-Dec-15 17:00S 20°22' E 170°47'1 0.6 27.2
2017-Dec-15 16:00S 20°23' E 170°47'1 1.3 27.2
2017-Dec-15 15:00S 20°22' E 170°48'1 1.3 27.3
2017-Dec-15 14:00S 20°23' E 170°49'2 0.6 27.3
2017-Dec-15 10:00S 20°23' E 170°51'1 1.1 27.3
2017-Dec-15 09:00S 20°23' E 170°52'0 0.0 27.4
2017-Dec-15 08:00S 20°23' E 170°52'1 1.3 27.4
2017-Dec-15 07:00S 20°22' E 170°53'1 0.6 27.4
2017-Dec-15 06:00S 20°22' E 170°53'1 0.6 27.4
2017-Dec-15 05:00S 20°22' E 170°54'1 1.1 27.4
2017-Dec-15 04:00S 20°22' E 170°55'1 1.2 27.4
2017-Dec-15 03:00S 20°23' E 170°55'1 0.1 27.4
2017-Dec-14 21:00S 20°23' E 170°56'0 0.0 27.2
2017-Dec-14 20:00S 20°23' E 170°56'1 0.3 27.2
2017-Dec-14 18:00S 20°22' E 170°56'1 0.6 27.2
2017-Dec-14 17:00S 20°22' E 170°56'0 0.0 27.2
2017-Dec-14 16:00S 20°22' E 170°56'0 0.0 27.2
2017-Dec-14 15:00S 20°22' E 170°56'1 0.6 27.2
2017-Dec-14 14:00S 20°23' E 170°56'1 0.2 27.2
2017-Dec-14 11:00S 20°23' E 170°56'0 0.0
2017-Dec-14 10:00S 20°23' E 170°56'0 0.0 27.2
2017-Dec-14 09:00S 20°23' E 170°56'0 0.0 27.2
2017-Dec-14 08:00S 20°23' E 170°56'1 0.6 27.2
2017-Dec-14 07:00S 20°23' E 170°56'0 0.0 27.2
2017-Dec-14 06:00S 20°23' E 170°56'0 0.0 27.2
2017-Dec-14 05:00S 20°23' E 170°56'1 0.3 27.2
2017-Dec-14 03:00S 20°23' E 170°57'1 0.2 27.2
2017-Dec-13 22:00S 20°23' E 170°56'1 0.6 27.1
2017-Dec-13 21:00S 20°23' E 170°57'1 0.3 27.0
2017-Dec-13 19:00S 20°24' E 170°57'1 0.2 27.1
2017-Dec-13 16:00S 20°23' E 170°57'1 0.8 27.1
2017-Dec-13 15:00S 20°24' E 170°56'0 0.0 27.1
2017-Dec-13 14:00S 20°24' E 170°56'1 0.4 27.1
2017-Dec-13 11:00S 20°25' E 170°58'0 0.0 27.2
2017-Dec-13 10:00S 20°25' E 170°58'1 0.6 27.2
2017-Dec-13 09:00S 20°25' E 170°57'1 0.8 27.1
2017-Dec-13 08:00S 20°25' E 170°56'1 0.8 26.9
2017-Dec-13 07:00S 20°25' E 170°57'0 0.0 26.9
2017-Dec-13 06:00S 20°25' E 170°57'1 0.6 26.9
2017-Dec-13 05:00S 20°25' E 170°57'0 0.0 26.9
2017-Dec-13 03:00S 20°25' E 170°57'3 0.6 26.9
2017-Dec-12 23:00S 20°26' E 170°59'0 0.0 26.4
2017-Dec-12 22:00S 20°26' E 170°59'1 0.6 26.4
2017-Dec-12 20:00S 20°27' E 171°01'1 1.3 26.2
2017-Dec-12 19:00S 20°28' E 171°02'1 1.2 26.2
2017-Dec-12 18:00S 20°26' E 171°02'2 1.9 26.2
2017-Dec-12 17:00S 20°28' E 171°02'1 0.6 26.2
2017-Dec-12 16:00S 20°28' E 171°03'2 0.4 26.3
2017-Dec-12 11:00S 20°29' E 171°05'1 0.6 26.5
2017-Dec-12 10:00S 20°29' E 171°05'0 0.0 26.5
2017-Dec-12 09:00S 20°29' E 171°05'1 0.6 26.6
2017-Dec-12 08:00S 20°29' E 171°05'1 1.1 26.6
2017-Dec-12 07:00S 20°29' E 171°06'0 0.0 26.6
2017-Dec-12 06:00S 20°29' E 171°06'1 0.6 26.7
2017-Dec-12 05:00S 20°29' E 171°07'1 1.3 26.7
2017-Dec-12 04:00S 20°28' E 171°07'0 0.0 26.7
2017-Dec-12 03:00S 20°28' E 171°07'2 0.5 27.1
2017-Dec-11 22:00S 20°28' E 171°10'1 0.8 26.3
2017-Dec-11 21:00S 20°27' E 171°10'1 0.6 26.3
2017-Dec-11 20:00S 20°26' E 171°10'1 0.3 26.4
2017-Dec-11 18:00S 20°27' E 171°10'1 1.3 26.3
2017-Dec-11 17:00S 20°26' E 171°11'0 0.0 26.5
2017-Dec-11 16:00S 20°26' E 171°11'2 0.5 26.1
2017-Dec-11 11:00S 20°28' E 171°13'1 0.8 26.1
2017-Dec-11 10:00S 20°29' E 171°14'1 0.4 26.1
2017-Dec-11 08:00S 20°29' E 171°14'1 0.6 26.3
2017-Dec-11 07:00S 20°29' E 171°14'1 1.3 26.4
2017-Dec-11 06:00S 20°29' E 171°15'0 0.0 26.6
2017-Dec-11 05:00S 20°29' E 171°15'0 0.0 26.6
2017-Dec-11 04:00S 20°29' E 171°15'0 0.0 26.6
2017-Dec-11 03:00S 20°29' E 171°15'5 1.1 26.6
2017-Dec-10 23:00S 20°29' E 171°20'1 0.6 26.1
2017-Dec-10 22:00S 20°29' E 171°19'1 0.6 26.1
2017-Dec-10 21:00S 20°29' E 171°20'1 1.1 26.0
2017-Dec-10 20:00S 20°29' E 171°21'1 0.8 26.0
2017-Dec-10 19:00S 20°30' E 171°22'1 1.1 26.0
2017-Dec-10 18:00S 20°30' E 171°23'1 0.6 26.0
2017-Dec-10 17:00S 20°30' E 171°23'1 0.8 26.0
2017-Dec-10 16:00S 20°31' E 171°24'2 0.5 26.1
2017-Dec-10 11:00S 20°32' E 171°26'1 0.6 26.1
2017-Dec-10 10:00S 20°32' E 171°26'0 0.0 26.2
2017-Dec-10 09:00S 20°32' E 171°26'1 1.1 26.2
2017-Dec-10 08:00S 20°32' E 171°27'1 0.6 26.2
2017-Dec-10 07:00S 20°31' E 171°27'3 1.5 26.3
2017-Dec-10 05:00S 20°32' E 171°30'0 0.0 26.3
2017-Dec-10 04:00S 20°32' E 171°30'1 0.1 26.4
2017-Dec-09 21:00S 20°32' E 171°31'1 0.3 26.1
2017-Dec-09 19:00S 20°32' E 171°31'1 0.8 26.0
2017-Dec-09 18:00S 20°32' E 171°32'3 0.4 26.0
2017-Dec-09 11:00S 20°33' E 171°35'1 0.8 26.1
2017-Dec-09 10:00S 20°34' E 171°35'1 0.6 26.1
2017-Dec-09 09:00S 20°34' E 171°36'1 1.2 26.1
2017-Dec-09 08:00S 20°35' E 171°36'2 0.7 26.2
2017-Dec-09 05:00S 20°36' E 171°38'1 1.2 26.4
2017-Dec-09 04:00S 20°37' E 171°38'0 0.0 26.4
2017-Dec-09 03:00S 20°37' E 171°38'1 0.2 26.4
2017-Dec-08 22:00S 20°38' E 171°38'1 0.6 26.1
2017-Dec-08 21:00S 20°38' E 171°39'1 0.8 26.1
2017-Dec-08 20:00S 20°38' E 171°38'0 0.0 26.0
2017-Dec-08 19:00S 20°38' E 171°38'1 0.6 26.0
2017-Dec-08 18:00S 20°38' E 171°39'1 0.3 26.0
2017-Dec-08 16:00S 20°38' E 171°39'2 2.2 26.0
2017-Dec-08 15:00S 20°38' E 171°41'1 0.3 26.0
2017-Dec-08 10:00S 20°38' E 171°43'1 1.3 26.2
2017-Dec-08 09:00S 20°40' E 171°43'2 1.0 26.2
2017-Dec-08 07:00S 20°41' E 171°45'0 0.0 26.3
2017-Dec-08 06:00S 20°41' E 171°45'1 0.3 26.5
2017-Dec-08 04:00S 20°41' E 171°45'2 1.8 26.8
2017-Dec-08 03:00S 20°43' E 171°45'0 0.0 26.8
2017-Dec-08 02:00S 20°43' E 171°45'2 0.4 26.7
2017-Dec-07 22:00S 20°44' E 171°46'2 0.9 26.0
2017-Dec-07 20:00S 20°46' E 171°46'1 0.6 25.8
2017-Dec-07 19:00S 20°46' E 171°46'0 0.0 25.8
2017-Dec-07 18:00S 20°46' E 171°46'0 0.0 25.8
2017-Dec-07 17:00S 20°46' E 171°46'0 0.0 25.8
2017-Dec-07 16:00S 20°46' E 171°46'1 0.6 25.8
2017-Dec-07 15:00S 20°47' E 171°46'0 0.0 25.9
2017-Dec-07 14:00S 20°47' E 171°46'1 0.3 25.9
2017-Dec-07 11:00S 20°46' E 171°46'0 0.0 26.0
2017-Dec-07 10:00S 20°46' E 171°46'1 0.6 26.0
2017-Dec-07 09:00S 20°46' E 171°47'1 0.6 26.0
2017-Dec-07 08:00S 20°47' E 171°47'1 0.6 26.1
2017-Dec-07 07:00S 20°47' E 171°47'2 0.8 26.1
2017-Dec-07 05:00S 20°48' E 171°49'1 1.3 26.4
2017-Dec-07 04:00S 20°49' E 171°49'   26.4
Track history (hours):
 
Tides and Currents Weather Stations Pressure Air Temp Water Temp Dewpoint Dewpoint Depression Visibility Wind Speed Wind Dir Waves Ship Positions

Drifting buoy 55955

Last reported at 2017-Dec-17 04:00 UTC. Time now 2017-Dec-17 06:27 UTC.
Position S 20°27' E 170°28'.

Water temperature 27.3 ° C

Date/timePositionNaut miles runAvg speedWind from/ knotsBaromVisibWave heightAir tempDewpointWater temp
2017-Dec-17 04:00S 20°27' E 170°28'0 0.0 27.3
2017-Dec-16 22:00S 20°27' E 170°28'1 0.8 27.3
2017-Dec-16 21:00S 20°26' E 170°28'1 1.3 27.3
2017-Dec-16 20:00S 20°26' E 170°29'1 0.6 27.3
2017-Dec-16 19:00S 20°26' E 170°30'2 0.8 27.3
2017-Dec-16 16:00S 20°25' E 170°32'2 2.3 27.3
2017-Dec-16 15:00S 20°26' E 170°35'0 0.0 27.3
2017-Dec-16 11:00S 20°26' E 170°35'1 0.8 27.3
2017-Dec-16 10:00S 20°25' E 170°35'0 0.0 27.3
2017-Dec-16 09:00S 20°25' E 170°35'1 1.1 27.3
2017-Dec-16 08:00S 20°25' E 170°37'1 0.6 27.3
2017-Dec-16 07:00S 20°25' E 170°37'2 1.7 27.3
2017-Dec-16 06:00S 20°25' E 170°38'0 0.0 27.3
2017-Dec-16 05:00S 20°25' E 170°38'1 0.6 27.3
2017-Dec-16 04:00S 20°25' E 170°39'0 0.0 27.3
2017-Dec-16 03:00S 20°25' E 170°39'0 0.0 27.3
2017-Dec-16 02:00S 20°25' E 170°39'3 1.0 27.3
2017-Dec-15 23:00S 20°24' E 170°42'0 0.0 27.3
2017-Dec-15 22:00S 20°24' E 170°42'1 1.3 27.3
2017-Dec-15 21:00S 20°25' E 170°43'2 1.6 27.3
2017-Dec-15 20:00S 20°23' E 170°44'1 0.3 27.3
2017-Dec-15 18:00S 20°23' E 170°45'2 2.1 27.2
2017-Dec-15 17:00S 20°22' E 170°47'1 0.6 27.2
2017-Dec-15 16:00S 20°23' E 170°47'1 1.3 27.2
2017-Dec-15 15:00S 20°22' E 170°48'1 1.3 27.3
2017-Dec-15 14:00S 20°23' E 170°49'2 0.6 27.3
2017-Dec-15 10:00S 20°23' E 170°51'1 1.1 27.3
2017-Dec-15 09:00S 20°23' E 170°52'0 0.0 27.4
2017-Dec-15 08:00S 20°23' E 170°52'1 1.3 27.4
2017-Dec-15 07:00S 20°22' E 170°53'1 0.6 27.4
2017-Dec-15 06:00S 20°22' E 170°53'1 0.6 27.4
2017-Dec-15 05:00S 20°22' E 170°54'1 1.1 27.4
2017-Dec-15 04:00S 20°22' E 170°55'1 1.2 27.4
2017-Dec-15 03:00S 20°23' E 170°55'1 0.1 27.4
2017-Dec-14 21:00S 20°23' E 170°56'0 0.0 27.2
2017-Dec-14 20:00S 20°23' E 170°56'1 0.3 27.2
2017-Dec-14 18:00S 20°22' E 170°56'1 0.6 27.2
2017-Dec-14 17:00S 20°22' E 170°56'0 0.0 27.2
2017-Dec-14 16:00S 20°22' E 170°56'0 0.0 27.2
2017-Dec-14 15:00S 20°22' E 170°56'1 0.6 27.2
2017-Dec-14 14:00S 20°23' E 170°56'1 0.2 27.2
2017-Dec-14 11:00S 20°23' E 170°56'0 0.0
2017-Dec-14 10:00S 20°23' E 170°56'0 0.0 27.2
2017-Dec-14 09:00S 20°23' E 170°56'0 0.0 27.2
2017-Dec-14 08:00S 20°23' E 170°56'1 0.6 27.2
2017-Dec-14 07:00S 20°23' E 170°56'0 0.0 27.2
2017-Dec-14 06:00S 20°23' E 170°56'0 0.0 27.2
2017-Dec-14 05:00S 20°23' E 170°56'1 0.3 27.2
2017-Dec-14 03:00S 20°23' E 170°57'1 0.2 27.2
2017-Dec-13 22:00S 20°23' E 170°56'1 0.6 27.1
2017-Dec-13 21:00S 20°23' E 170°57'1 0.3 27.0
2017-Dec-13 19:00S 20°24' E 170°57'1 0.2 27.1
2017-Dec-13 16:00S 20°23' E 170°57'1 0.8 27.1
2017-Dec-13 15:00S 20°24' E 170°56'0 0.0 27.1
2017-Dec-13 14:00S 20°24' E 170°56'1 0.4 27.1
2017-Dec-13 11:00S 20°25' E 170°58'0 0.0 27.2
2017-Dec-13 10:00S 20°25' E 170°58'1 0.6 27.2
2017-Dec-13 09:00S 20°25' E 170°57'1 0.8 27.1
2017-Dec-13 08:00S 20°25' E 170°56'1 0.8 26.9
2017-Dec-13 07:00S 20°25' E 170°57'0 0.0 26.9
2017-Dec-13 06:00S 20°25' E 170°57'1 0.6 26.9
2017-Dec-13 05:00S 20°25' E 170°57'0 0.0 26.9
2017-Dec-13 03:00S 20°25' E 170°57'3 0.6 26.9
2017-Dec-12 23:00S 20°26' E 170°59'0 0.0 26.4
2017-Dec-12 22:00S 20°26' E 170°59'1 0.6 26.4
2017-Dec-12 20:00S 20°27' E 171°01'1 1.3 26.2
2017-Dec-12 19:00S 20°28' E 171°02'1 1.2 26.2
2017-Dec-12 18:00S 20°26' E 171°02'2 1.9 26.2
2017-Dec-12 17:00S 20°28' E 171°02'1 0.6 26.2
2017-Dec-12 16:00S 20°28' E 171°03'2 0.4 26.3
2017-Dec-12 11:00S 20°29' E 171°05'1 0.6 26.5
2017-Dec-12 10:00S 20°29' E 171°05'0 0.0 26.5
2017-Dec-12 09:00S 20°29' E 171°05'1 0.6 26.6
2017-Dec-12 08:00S 20°29' E 171°05'1 1.1 26.6
2017-Dec-12 07:00S 20°29' E 171°06'0 0.0 26.6
2017-Dec-12 06:00S 20°29' E 171°06'1 0.6 26.7
2017-Dec-12 05:00S 20°29' E 171°07'1 1.3 26.7
2017-Dec-12 04:00S 20°28' E 171°07'0 0.0 26.7
2017-Dec-12 03:00S 20°28' E 171°07'2 0.5 27.1
2017-Dec-11 22:00S 20°28' E 171°10'1 0.8 26.3
2017-Dec-11 21:00S 20°27' E 171°10'1 0.6 26.3
2017-Dec-11 20:00S 20°26' E 171°10'1 0.3 26.4
2017-Dec-11 18:00S 20°27' E 171°10'1 1.3 26.3
2017-Dec-11 17:00S 20°26' E 171°11'0 0.0 26.5
2017-Dec-11 16:00S 20°26' E 171°11'2 0.5 26.1
2017-Dec-11 11:00S 20°28' E 171°13'1 0.8 26.1
2017-Dec-11 10:00S 20°29' E 171°14'1 0.4 26.1
2017-Dec-11 08:00S 20°29' E 171°14'1 0.6 26.3
2017-Dec-11 07:00S 20°29' E 171°14'1 1.3 26.4
2017-Dec-11 06:00S 20°29' E 171°15'0 0.0 26.6
2017-Dec-11 05:00S 20°29' E 171°15'0 0.0 26.6
2017-Dec-11 04:00S 20°29' E 171°15'0 0.0 26.6
2017-Dec-11 03:00S 20°29' E 171°15'5 1.1 26.6
2017-Dec-10 23:00S 20°29' E 171°20'1 0.6 26.1
2017-Dec-10 22:00S 20°29' E 171°19'1 0.6 26.1
2017-Dec-10 21:00S 20°29' E 171°20'1 1.1 26.0
2017-Dec-10 20:00S 20°29' E 171°21'1 0.8 26.0
2017-Dec-10 19:00S 20°30' E 171°22'1 1.1 26.0
2017-Dec-10 18:00S 20°30' E 171°23'1 0.6 26.0
2017-Dec-10 17:00S 20°30' E 171°23'1 0.8 26.0
2017-Dec-10 16:00S 20°31' E 171°24'2 0.5 26.1
2017-Dec-10 11:00S 20°32' E 171°26'1 0.6 26.1
2017-Dec-10 10:00S 20°32' E 171°26'0 0.0 26.2
2017-Dec-10 09:00S 20°32' E 171°26'1 1.1 26.2
2017-Dec-10 08:00S 20°32' E 171°27'1 0.6 26.2
2017-Dec-10 07:00S 20°31' E 171°27'3 1.5 26.3
2017-Dec-10 05:00S 20°32' E 171°30'0 0.0 26.3
2017-Dec-10 04:00S 20°32' E 171°30'1 0.1 26.4
2017-Dec-09 21:00S 20°32' E 171°31'1 0.3 26.1
2017-Dec-09 19:00S 20°32' E 171°31'1 0.8 26.0
2017-Dec-09 18:00S 20°32' E 171°32'3 0.4 26.0
2017-Dec-09 11:00S 20°33' E 171°35'1 0.8 26.1
2017-Dec-09 10:00S 20°34' E 171°35'1 0.6 26.1
2017-Dec-09 09:00S 20°34' E 171°36'1 1.2 26.1
2017-Dec-09 08:00S 20°35' E 171°36'2 0.7 26.2
2017-Dec-09 05:00S 20°36' E 171°38'1 1.2 26.4
2017-Dec-09 04:00S 20°37' E 171°38'0 0.0 26.4
2017-Dec-09 03:00S 20°37' E 171°38'1 0.2 26.4
2017-Dec-08 22:00S 20°38' E 171°38'1 0.6 26.1
2017-Dec-08 21:00S 20°38' E 171°39'1 0.8 26.1
2017-Dec-08 20:00S 20°38' E 171°38'0 0.0 26.0
2017-Dec-08 19:00S 20°38' E 171°38'1 0.6 26.0
2017-Dec-08 18:00S 20°38' E 171°39'1 0.3 26.0
2017-Dec-08 16:00S 20°38' E 171°39'2 2.2 26.0
2017-Dec-08 15:00S 20°38' E 171°41'1 0.3 26.0
2017-Dec-08 10:00S 20°38' E 171°43'1 1.3 26.2
2017-Dec-08 09:00S 20°40' E 171°43'2 1.0 26.2
2017-Dec-08 07:00S 20°41' E 171°45'0 0.0 26.3
2017-Dec-08 06:00S 20°41' E 171°45'1 0.3 26.5
2017-Dec-08 04:00S 20°41' E 171°45'2 1.8 26.8
2017-Dec-08 03:00S 20°43' E 171°45'0 0.0 26.8
2017-Dec-08 02:00S 20°43' E 171°45'2 0.4 26.7
2017-Dec-07 22:00S 20°44' E 171°46'2 0.9 26.0
2017-Dec-07 20:00S 20°46' E 171°46'1 0.6 25.8
2017-Dec-07 19:00S 20°46' E 171°46'0 0.0 25.8
2017-Dec-07 18:00S 20°46' E 171°46'0 0.0 25.8
2017-Dec-07 17:00S 20°46' E 171°46'0 0.0 25.8
2017-Dec-07 16:00S 20°46' E 171°46'1 0.6 25.8
2017-Dec-07 15:00S 20°47' E 171°46'0 0.0 25.9
2017-Dec-07 14:00S 20°47' E 171°46'1 0.3 25.9
2017-Dec-07 11:00S 20°46' E 171°46'0 0.0 26.0
2017-Dec-07 10:00S 20°46' E 171°46'1 0.6 26.0
2017-Dec-07 09:00S 20°46' E 171°47'1 0.6 26.0
2017-Dec-07 08:00S 20°47' E 171°47'1 0.6 26.1
2017-Dec-07 07:00S 20°47' E 171°47'2 0.8 26.1
2017-Dec-07 05:00S 20°48' E 171°49'1 1.3 26.4
2017-Dec-07 04:00S 20°49' E 171°49'   26.4

Dump ship's entire track history